Time;durP1;ratioP1;P1;durP2;ratioP2;P2;SDS_P1;SDS_P2;PMS_P1;PMS_P2;Temp;Humidity;BMP_temperature;BMP_pressure;BME280_temperature;BME280_humidity;BME280_pressure;Samples;Min_cycle;Max_cycle;Signal;HPM_P1;HPM_P2
2021/07/31 00:00:06;;;;;;;5.47;4.97;;;19.90;99.90;;;;;;4997051;28;20256;-51
2021/07/31 00:02:32;;;;;;;7.00;4.80;;;19.90;99.90;;;;;;4996258;28;20215;-53
2021/07/31 00:04:57;;;;;;;5.70;4.70;;;19.90;99.90;;;;;;4996148;28;20265;-56
2021/07/31 00:07:23;;;;;;;5.40;4.90;;;20.10;99.90;;;;;;4996718;28;20181;-56
2021/07/31 00:09:48;;;;;;;5.80;4.90;;;20.00;99.90;;;;;;4996005;28;20208;-51
2021/07/31 00:12:14;;;;;;;5.40;4.77;;;19.90;99.90;;;;;;4996117;28;20548;-52
2021/07/31 00:14:39;;;;;;;6.67;5.20;;;20.00;99.90;;;;;;4995856;28;20205;-56
2021/07/31 00:17:07;;;;;;;5.47;4.83;;;20.10;99.90;;;;;;4996326;28;20179;-51
2021/07/31 00:19:33;;;;;;;6.83;5.27;;;20.10;99.90;;;;;;4996019;28;20196;-51
2021/07/31 00:21:59;;;;;;;5.50;4.93;;;20.20;99.90;;;;;;4995808;28;20651;-51
2021/07/31 00:24:24;;;;;;;5.37;4.87;;;20.20;99.90;;;;;;4995835;28;20201;-52
2021/07/31 00:26:50;;;;;;;5.30;4.37;;;20.20;99.90;;;;;;4995986;28;20180;-56
2021/07/31 00:29:15;;;;;;;5.57;4.87;;;20.20;99.90;;;;;;4994796;28;20177;-55
2021/07/31 00:31:41;;;;;;;6.37;5.00;;;20.20;99.90;;;;;;4995480;28;20204;-51
2021/07/31 00:34:07;;;;;;;5.30;4.67;;;20.20;99.90;;;;;;4995790;28;20344;-52
2021/07/31 00:36:32;;;;;;;11.87;5.60;;;20.30;99.90;;;;;;4995767;28;20656;-55
2021/07/31 00:38:58;;;;;;;5.27;4.37;;;20.30;99.90;;;;;;4995886;28;20181;-55
2021/07/31 00:41:23;;;;;;;6.57;5.00;;;20.30;99.90;;;;;;4995667;28;20194;-51
2021/07/31 00:43:49;;;;;;;5.80;4.77;;;20.30;99.90;;;;;;4995571;28;20244;-55
2021/07/31 00:46:14;;;;;;;6.70;4.40;;;20.30;99.90;;;;;;4995507;28;20181;-53
2021/07/31 00:48:40;;;;;;;5.13;4.13;;;20.30;99.90;;;;;;4995639;28;20239;-57
2021/07/31 00:51:06;;;;;;;4.90;4.40;;;20.20;99.90;;;;;;4995433;28;20273;-51
2021/07/31 00:53:33;;;;;;;5.40;4.60;;;20.30;99.90;;;;;;4995663;28;20245;-55
2021/07/31 00:55:58;;;;;;;5.87;4.23;;;20.30;99.90;;;;;;4996067;28;20196;-52
2021/07/31 00:58:26;;;;;;;10.60;4.80;;;20.30;99.90;;;;;;4995210;28;20181;-54
2021/07/31 01:00:52;;;;;;;6.53;4.57;;;20.30;99.90;;;;;;4995418;28;20236;-53
2021/07/31 01:03:18;;;;;;;7.53;4.90;;;20.30;99.90;;;;;;4994723;28;20211;-55
2021/07/31 01:05:44;;;;;;;5.33;4.30;;;20.30;99.90;;;;;;4995414;28;20185;-57
2021/07/31 01:08:09;;;;;;;5.70;5.10;;;20.30;99.90;;;;;;4995335;28;20200;-51
2021/07/31 01:10:35;;;;;;;6.87;4.87;;;20.40;99.90;;;;;;4995388;28;20185;-55
2021/07/31 01:13:02;;;;;;;5.33;4.83;;;20.40;99.90;;;;;;4995012;28;20201;-53
2021/07/31 01:15:27;;;;;;;7.27;5.77;;;20.30;99.90;;;;;;4994471;28;20613;-52
2021/07/31 01:17:53;;;;;;;7.13;5.80;;;19.90;99.90;;;;;;4995400;28;20659;-57
2021/07/31 01:20:19;;;;;;;6.23;4.90;;;19.70;99.90;;;;;;4994987;28;20541;-52
2021/07/31 01:22:44;;;;;;;5.47;4.87;;;19.60;99.90;;;;;;4994765;28;20201;-52
2021/07/31 01:25:10;;;;;;;4.97;4.33;;;19.60;99.90;;;;;;4995547;28;20188;-54
2021/07/31 01:27:39;;;;;;;4.50;4.10;;;19.60;99.90;;;;;;4994958;28;20181;-51
2021/07/31 01:30:05;;;;;;;5.17;4.40;;;19.60;99.90;;;;;;4994955;28;20174;-51
2021/07/31 01:32:31;;;;;;;5.97;4.70;;;19.70;99.90;;;;;;4994578;28;20254;-52
2021/07/31 01:34:56;;;;;;;6.63;4.80;;;19.80;99.90;;;;;;4994736;28;20212;-53
2021/07/31 01:37:22;;;;;;;4.83;4.40;;;20.00;99.90;;;;;;4994699;28;20224;-52
2021/07/31 01:39:48;;;;;;;5.37;4.87;;;20.10;99.90;;;;;;4994176;28;20193;-56
2021/07/31 01:42:14;;;;;;;5.37;4.50;;;20.10;99.90;;;;;;4994645;28;20226;-51
2021/07/31 01:44:40;;;;;;;4.67;4.17;;;20.10;99.90;;;;;;4994458;28;20205;-52
2021/07/31 01:47:05;;;;;;;5.30;4.60;;;20.10;99.90;;;;;;4994687;28;20537;-53
2021/07/31 01:49:31;;;;;;;6.40;4.60;;;20.10;99.90;;;;;;4994813;28;20628;-53
2021/07/31 01:51:57;;;;;;;4.70;4.13;;;20.20;99.90;;;;;;4994474;28;20609;-58
2021/07/31 01:54:22;;;;;;;5.30;4.80;;;20.20;99.90;;;;;;4994024;28;20256;-54
2021/07/31 01:56:48;;;;;;;5.00;4.50;;;20.20;99.90;;;;;;4994440;28;20195;-58
2021/07/31 01:59:14;;;;;;;5.03;4.53;;;20.30;99.90;;;;;;4994518;28;20231;-53
2021/07/31 02:01:40;;;;;;;6.47;5.00;;;20.20;99.90;;;;;;4994552;28;20208;-53
2021/07/31 02:04:06;;;;;;;5.20;4.70;;;20.20;99.90;;;;;;4994496;28;20255;-54
2021/07/31 02:06:32;;;;;;;5.27;4.77;;;20.30;99.90;;;;;;4994466;28;20181;-51
2021/07/31 02:08:57;;;;;;;6.00;5.10;;;20.30;99.90;;;;;;4994389;28;20189;-52
2021/07/31 02:11:23;;;;;;;5.40;4.90;;;20.20;99.90;;;;;;4993981;28;20538;-53
2021/07/31 02:13:48;;;;;;;5.60;5.00;;;20.10;99.90;;;;;;4994365;28;20217;-56
2021/07/31 02:16:27;;;;;;;9.20;5.67;;;20.10;99.90;;;;;;4994213;28;20179;-54
2021/07/31 02:18:53;;;;;;;5.87;4.50;;;19.90;99.90;;;;;;4994353;28;20263;-53
2021/07/31 02:21:20;;;;;;;5.97;5.37;;;19.90;99.90;;;;;;4993888;28;20276;-55
2021/07/31 02:23:46;;;;;;;6.50;5.40;;;19.90;99.90;;;;;;4994812;28;20197;-52
2021/07/31 02:26:11;;;;;;;5.90;4.80;;;19.90;99.90;;;;;;4994276;28;20256;-51
2021/07/31 02:28:37;;;;;;;6.90;4.93;;;20.00;99.90;;;;;;4994513;28;20257;-53
2021/07/31 02:31:03;;;;;;;5.40;4.90;;;20.00;99.90;;;;;;4993907;28;20630;-54
2021/07/31 02:33:28;;;;;;;5.33;4.80;;;20.10;99.90;;;;;;4993896;28;20280;-51
2021/07/31 02:35:54;;;;;;;6.00;5.40;;;20.10;99.90;;;;;;4994638;28;20209;-53
2021/07/31 02:38:19;;;;;;;5.97;5.37;;;20.10;99.90;;;;;;4994019;28;20224;-51
2021/07/31 02:40:45;;;;;;;6.93;5.07;;;20.20;99.90;;;;;;4994353;28;20178;-52
2021/07/31 02:43:10;;;;;;;5.97;4.80;;;20.00;99.90;;;;;;4993778;28;20220;-53
2021/07/31 02:45:36;;;;;;;5.33;4.50;;;19.90;99.90;;;;;;4993968;28;20182;-55
2021/07/31 02:48:04;;;;;;;5.07;4.50;;;19.90;99.90;;;;;;4993986;28;20189;-54
2021/07/31 02:50:30;;;;;;;4.90;4.40;;;19.80;99.90;;;;;;4994019;28;20174;-52
2021/07/31 02:52:55;;;;;;;5.00;4.57;;;19.90;99.90;;;;;;4995856;28;20217;-52
2021/07/31 02:55:21;;;;;;;4.90;4.40;;;19.90;99.90;;;;;;4997999;28;20193;-53
2021/07/31 02:57:47;;;;;;;5.43;4.57;;;19.90;99.90;;;;;;4997521;28;20170;-56
2021/07/31 03:00:12;;;;;;;5.57;4.43;;;19.80;99.90;;;;;;4997643;28;20246;-53
2021/07/31 03:02:38;;;;;;;7.33;4.83;;;19.80;99.90;;;;;;4997456;28;20177;-54
2021/07/31 03:05:04;;;;;;;5.70;4.43;;;19.70;99.90;;;;;;4997601;28;20174;-53
2021/07/31 03:07:32;;;;;;;5.70;5.00;;;19.70;99.90;;;;;;4997442;28;20181;-51
2021/07/31 03:09:58;;;;;;;5.30;4.80;;;19.60;99.90;;;;;;4997680;28;20185;-52
2021/07/31 03:12:23;;;;;;;5.50;4.60;;;19.50;99.90;;;;;;4997263;28;20174;-53
2021/07/31 03:14:49;;;;;;;6.33;5.37;;;19.40;99.90;;;;;;4997318;28;20236;-53
2021/07/31 03:17:16;;;;;;;5.30;4.80;;;19.40;99.90;;;;;;4997458;28;20672;-55
2021/07/31 03:19:43;;;;;;;5.67;4.93;;;19.30;99.90;;;;;;4997264;28;20177;-52
2021/07/31 03:22:08;;;;;;;5.73;5.23;;;19.40;99.90;;;;;;4997367;28;20224;-53
2021/07/31 03:24:34;;;;;;;8.63;5.30;;;19.30;99.90;;;;;;4997266;28;20201;-52
2021/07/31 03:27:00;;;;;;;6.20;4.87;;;19.30;99.90;;;;;;4996963;28;20630;-51
2021/07/31 03:29:25;;;;;;;6.47;5.37;;;19.40;99.90;;;;;;4997334;28;20184;-56
2021/07/31 03:31:52;;;;;;;6.37;5.13;;;19.40;99.90;;;;;;4996565;28;20272;-53
2021/07/31 03:34:18;;;;;;;6.43;5.63;;;19.30;99.90;;;;;;4995755;28;20201;-52
2021/07/31 03:36:43;;;;;;;6.07;5.40;;;19.20;99.90;;;;;;4997077;28;20177;-53
2021/07/31 03:39:09;;;;;;;7.27;6.07;;;19.20;99.90;;;;;;4996995;28;20200;-55
2021/07/31 03:41:34;;;;;;;6.80;6.10;;;19.10;99.90;;;;;;4996485;28;20193;-53
2021/07/31 03:44:00;;;;;;;7.83;7.00;;;19.10;99.90;;;;;;4996937;28;20620;-55
2021/07/31 03:46:26;;;;;;;8.00;6.57;;;19.00;99.90;;;;;;4996620;28;20704;-52
2021/07/31 03:48:51;;;;;;;10.30;6.17;;;19.00;99.90;;;;;;4996897;28;20224;-51
2021/07/31 03:51:17;;;;;;;6.60;6.00;;;19.10;99.90;;;;;;4996469;28;20529;-51
2021/07/31 03:53:42;;;;;;;8.87;6.40;;;19.10;99.90;;;;;;4996424;28;20209;-52
2021/07/31 03:56:08;;;;;;;8.67;6.83;;;19.10;99.90;;;;;;4996640;28;20208;-52
2021/07/31 03:58:33;;;;;;;6.40;5.80;;;19.10;99.90;;;;;;4996894;28;20633;-56
2021/07/31 04:00:59;;;;;;;6.87;5.73;;;19.10;99.90;;;;;;4996534;28;20170;-51
2021/07/31 04:03:25;;;;;;;8.13;6.67;;;19.10;99.90;;;;;;4996179;28;20193;-58
2021/07/31 04:05:50;;;;;;;7.37;6.13;;;19.00;99.90;;;;;;4996406;28;20178;-53
2021/07/31 04:08:16;;;;;;;7.87;5.67;;;18.90;99.90;;;;;;4996121;28;20217;-51
2021/07/31 04:10:42;;;;;;;7.23;6.33;;;18.90;99.90;;;;;;4996611;28;20177;-53
2021/07/31 04:13:07;;;;;;;7.43;6.03;;;18.90;99.90;;;;;;4996203;28;20189;-54
2021/07/31 04:15:33;;;;;;;10.50;6.87;;;18.90;99.90;;;;;;4996077;28;20720;-54
2021/07/31 04:17:58;;;;;;;7.13;5.33;;;19.00;99.90;;;;;;4996534;28;20696;-58
2021/07/31 04:20:24;;;;;;;5.87;4.93;;;19.00;99.90;;;;;;4996102;28;20169;-56
2021/07/31 04:22:49;;;;;;;8.17;5.57;;;19.00;99.90;;;;;;4996209;28;20669;-56
2021/07/31 04:25:15;;;;;;;9.57;5.53;;;18.90;99.90;;;;;;4996333;28;20173;-54
2021/07/31 04:27:41;;;;;;;6.40;5.40;;;18.90;99.90;;;;;;4996345;28;20180;-51
2021/07/31 04:30:07;;;;;;;5.50;4.97;;;18.80;99.90;;;;;;4996387;28;20197;-53
2021/07/31 04:32:32;;;;;;;5.90;4.97;;;18.80;99.90;;;;;;4995798;28;20676;-55
2021/07/31 04:34:58;;;;;;;5.57;4.90;;;18.80;99.90;;;;;;4995831;28;20822;-53
2021/07/31 04:37:23;;;;;;;7.33;5.10;;;18.80;99.90;;;;;;4996108;28;20503;-58
2021/07/31 04:39:49;;;;;;;6.97;5.50;;;18.80;99.90;;;;;;4995913;28;20546;-51
2021/07/31 04:42:14;;;;;;;6.97;4.93;;;18.70;99.90;;;;;;4995591;28;20173;-54
2021/07/31 04:44:40;;;;;;;5.67;4.80;;;18.70;99.90;;;;;;4995956;28;20208;-54
2021/07/31 04:47:07;;;;;;;5.50;4.63;;;18.60;99.90;;;;;;4995843;28;20522;-51
2021/07/31 04:49:35;;;;;;;5.27;4.77;;;18.60;99.90;;;;;;4995464;28;20704;-52
2021/07/31 04:52:01;;;;;;;5.10;4.20;;;18.60;99.90;;;;;;4995742;28;20205;-53
2021/07/31 04:54:29;;;;;;;5.83;4.83;;;18.60;99.90;;;;;;4995448;28;20295;-57
2021/07/31 04:56:54;;;;;;;6.97;4.27;;;18.60;99.90;;;;;;4995846;28;20180;-54
2021/07/31 04:59:19;;;;;;;6.27;4.60;;;18.60;99.90;;;;;;4995225;28;20185;-53
2021/07/31 05:01:45;;;;;;;4.77;4.30;;;18.60;99.90;;;;;;4995079;28;20182;-58
2021/07/31 05:04:10;;;;;;;4.77;4.30;;;18.60;99.90;;;;;;4995168;28;20673;-53
2021/07/31 05:06:37;;;;;;;4.97;4.43;;;18.60;99.90;;;;;;4995299;28;20220;-57
2021/07/31 05:09:05;;;;;;;4.90;4.40;;;18.70;99.90;;;;;;4995125;28;20185;-55
2021/07/31 05:11:30;;;;;;;6.13;4.30;;;18.70;99.90;;;;;;4994892;28;20193;-52
2021/07/31 05:13:56;;;;;;;7.50;4.43;;;18.70;99.90;;;;;;4994819;28;20223;-52
2021/07/31 05:16:21;;;;;;;5.03;4.10;;;18.70;99.90;;;;;;4994627;28;20169;-53
2021/07/31 05:18:47;;;;;;;5.30;4.50;;;18.70;99.90;;;;;;4993721;28;20534;-53
2021/07/31 05:21:12;;;;;;;5.00;4.33;;;18.60;99.90;;;;;;4989441;28;20176;-52
2021/07/31 05:23:39;;;;;;;6.87;4.40;;;18.60;99.90;;;;;;5000738;28;20231;-57
2021/07/31 05:26:10;;;;;;;6.07;4.80;;;18.60;99.90;;;;;;4992898;28;20256;-56
2021/07/31 05:28:36;;;;;;;9.03;4.80;;;18.60;99.90;;;;;;4994590;28;20192;-57
2021/07/31 05:31:02;;;;;;;5.37;4.50;;;18.50;99.90;;;;;;4994690;28;20177;-53
2021/07/31 05:33:27;;;;;;;6.30;4.40;;;18.60;99.90;;;;;;4994343;28;20208;-51
2021/07/31 05:35:53;;;;;;;7.13;4.73;;;18.60;99.90;;;;;;4994573;28;20209;-53
2021/07/31 05:38:19;;;;;;;5.70;4.20;;;18.60;99.90;;;;;;4994563;28;20292;-54
2021/07/31 05:40:44;;;;;;;4.73;4.30;;;18.50;99.90;;;;;;4994225;28;20252;-58
2021/07/31 05:43:10;;;;;;;5.03;4.53;;;18.50;99.90;;;;;;4992530;28;20228;-53
2021/07/31 05:45:35;;;;;;;6.47;4.37;;;18.50;99.90;;;;;;4993630;28;20177;-58
2021/07/31 05:48:01;;;;;;;5.83;3.90;;;18.50;99.90;;;;;;4994348;28;20178;-51
2021/07/31 05:50:26;;;;;;;5.93;5.00;;;18.70;99.90;;;;;;4994542;28;20641;-51
2021/07/31 05:52:52;;;;;;;7.27;5.00;;;18.70;99.90;;;;;;4994931;28;20220;-56
2021/07/31 05:55:18;;;;;;;5.03;4.53;;;18.70;99.90;;;;;;4994757;28;20220;-54
2021/07/31 05:57:43;;;;;;;6.37;4.97;;;18.80;99.90;;;;;;4995138;28;20169;-53
2021/07/31 06:00:09;;;;;;;6.57;4.40;;;18.70;99.90;;;;;;4994734;28;20244;-56
2021/07/31 06:02:35;;;;;;;5.63;4.67;;;18.80;99.90;;;;;;4993998;28;20185;-57
2021/07/31 06:05:00;;;;;;;7.63;4.50;;;18.90;99.90;;;;;;4994355;28;20176;-53
2021/07/31 06:07:26;;;;;;;5.00;4.50;;;18.90;99.90;;;;;;4994389;28;20638;-51
2021/07/31 06:09:53;;;;;;;4.93;4.20;;;18.90;99.90;;;;;;4994089;28;20680;-56
2021/07/31 06:12:20;;;;;;;5.20;4.10;;;18.90;99.90;;;;;;4994340;28;20188;-52
2021/07/31 06:14:46;;;;;;;4.50;4.10;;;19.00;99.90;;;;;;4994544;28;20201;-53
2021/07/31 06:17:12;;;;;;;5.00;4.50;;;19.20;99.90;;;;;;4994217;28;20301;-55
2021/07/31 06:19:38;;;;;;;4.93;4.00;;;19.20;99.90;;;;;;4994282;28;20202;-58
2021/07/31 06:22:03;;;;;;;5.10;4.53;;;19.30;99.90;;;;;;4994624;28;20178;-51
2021/07/31 06:24:29;;;;;;;7.80;4.50;;;19.40;99.90;;;;;;4994670;28;20193;-53
2021/07/31 06:26:55;;;;;;;4.93;4.43;;;19.40;99.90;;;;;;4996953;28;20181;-52
2021/07/31 06:29:21;;;;;;;6.10;4.53;;;19.40;99.90;;;;;;4998377;28;20253;-53
2021/07/31 06:31:47;;;;;;;4.73;4.33;;;19.40;99.90;;;;;;4997645;28;20271;-55
2021/07/31 06:34:12;;;;;;;5.10;4.30;;;19.50;99.90;;;;;;4997998;28;20280;-56
2021/07/31 06:36:39;;;;;;;5.83;4.60;;;19.70;99.90;;;;;;4998250;28;20252;-57
2021/07/31 06:39:05;;;;;;;5.10;4.60;;;19.90;99.90;;;;;;4998083;28;20185;-53
2021/07/31 06:41:31;;;;;;;4.87;4.20;;;19.80;99.90;;;;;;4987095;28;20244;-51
2021/07/31 06:43:57;;;;;;;5.43;4.73;;;19.90;99.90;;;;;;4989844;28;20213;-54
2021/07/31 06:46:24;;;;;;;6.03;4.63;;;19.90;99.90;;;;;;4984729;28;20182;-60
2021/07/31 06:48:51;;;;;;;5.17;4.13;;;19.80;99.90;;;;;;4985335;28;20574;-57
2021/07/31 06:51:17;;;;;;;6.80;4.70;;;19.60;99.90;;;;;;4989282;28;20206;-54
2021/07/31 06:53:43;;;;;;;7.67;4.93;;;19.60;99.90;;;;;;4996346;28;20228;-55
2021/07/31 06:56:09;;;;;;;4.70;4.30;;;19.80;99.90;;;;;;4999139;28;20177;-57
2021/07/31 06:58:34;;;;;;;5.87;4.90;;;20.10;99.90;;;;;;4998153;28;20181;-54
2021/07/31 07:01:00;;;;;;;7.00;4.87;;;20.40;99.90;;;;;;4996633;28;20165;-54
2021/07/31 07:03:25;;;;;;;5.27;4.73;;;20.60;99.90;;;;;;4978511;28;20234;-54
2021/07/31 07:05:51;;;;;;;4.72;4.32;;;20.60;99.90;;;;;;4979513;28;20187;-54
2021/07/31 07:08:17;;;;;;;4.32;4.03;;;21.40;99.90;;;;;;4994375;28;20332;-58
2021/07/31 07:10:42;;;;;;;5.10;4.60;;;20.80;99.90;;;;;;4995613;28;20187;-58
2021/07/31 07:13:08;;;;;;;7.43;4.43;;;21.00;99.90;;;;;;4996757;28;20227;-55
2021/07/31 07:15:35;;;;;;;4.72;4.32;;;21.00;99.90;;;;;;4997209;28;20657;-58
2021/07/31 07:18:01;;;;;;;5.50;4.85;;;21.30;99.90;;;;;;4998737;28;20208;-54
2021/07/31 07:20:26;;;;;;;5.15;4.65;;;21.30;99.90;;;;;;4999405;28;20195;-53
2021/07/31 07:22:52;;;;;;;6.20;4.80;;;21.50;99.90;;;;;;4996445;28;20285;-57
2021/07/31 07:25:18;;;;;;;8.27;5.47;;;21.30;99.90;;;;;;4996788;28;20190;-59
2021/07/31 07:27:44;;;;;;;5.40;4.90;;;21.20;99.90;;;;;;4997079;28;20259;-59
2021/07/31 07:30:10;;;;;;;5.78;4.95;;;21.00;99.90;;;;;;4996670;28;20210;-53
2021/07/31 07:32:36;;;;;;;5.75;5.15;;;21.00;99.90;;;;;;4996124;28;20179;-53
2021/07/31 07:35:03;;;;;;;5.93;4.30;;;21.10;99.90;;;;;;4997229;28;20198;-52
2021/07/31 07:37:29;;;;;;;7.32;4.97;;;21.10;99.90;;;;;;4994857;28;20529;-53
2021/07/31 07:39:54;;;;;;;5.60;5.10;;;21.20;99.90;;;;;;4997007;28;20649;-54
2021/07/31 07:42:20;;;;;;;7.78;5.75;;;21.10;99.90;;;;;;4996344;28;20167;-53
2021/07/31 07:44:45;;;;;;;5.97;5.38;;;21.20;99.90;;;;;;4996876;28;20717;-53
2021/07/31 07:47:11;;;;;;;8.00;5.90;;;21.30;99.90;;;;;;4996638;28;20177;-50
2021/07/31 07:49:37;;;;;;;6.47;5.75;;;21.20;99.90;;;;;;4996842;28;20175;-50
2021/07/31 07:52:04;;;;;;;6.43;5.82;;;20.90;99.90;;;;;;4996336;28;20281;-51
2021/07/31 07:54:29;;;;;;;6.00;5.40;;;21.20;99.90;;;;;;4996871;28;20581;-52
2021/07/31 07:56:56;;;;;;;6.63;6.00;;;21.00;99.90;;;;;;4997076;28;20623;-53
2021/07/31 07:59:21;;;;;;;6.78;6.07;;;21.10;99.90;;;;;;4996407;28;20191;-55
2021/07/31 08:01:47;;;;;;;7.53;6.10;;;21.20;99.90;;;;;;4996111;28;20175;-55
2021/07/31 08:04:13;;;;;;;6.93;6.25;;;21.20;99.90;;;;;;4996778;28;20339;-51
2021/07/31 08:06:38;;;;;;;7.00;6.30;;;21.40;99.90;;;;;;4995057;28;20626;-51
2021/07/31 08:09:04;;;;;;;7.13;6.35;;;21.70;99.90;;;;;;4991957;28;20214;-52
2021/07/31 08:11:30;;;;;;;8.10;6.38;;;22.10;99.90;;;;;;4989226;28;20215;-54
2021/07/31 08:13:56;;;;;;;6.20;5.70;;;22.20;99.90;;;;;;4974591;28;20209;-54
2021/07/31 08:16:21;;;;;;;7.45;6.55;;;22.30;99.90;;;;;;4974729;28;20266;-55
2021/07/31 08:18:47;;;;;;;6.13;5.55;;;22.10;99.90;;;;;;4976328;28;20571;-57
2021/07/31 08:21:12;;;;;;;6.63;5.88;;;22.10;99.90;;;;;;4975970;28;20521;-50
2021/07/31 08:23:38;;;;;;;6.75;6.05;;;22.10;99.90;;;;;;4977238;28;20217;-53
2021/07/31 08:26:05;;;;;;;6.97;6.32;;;22.20;99.90;;;;;;4975592;28;20181;-52
2021/07/31 08:28:31;;;;;;;7.30;6.60;;;22.30;99.90;;;;;;4975782;28;20181;-52
2021/07/31 08:30:56;;;;;;;7.00;5.65;;;22.20;99.90;;;;;;4976481;28;20176;-55
2021/07/31 08:33:22;;;;;;;8.18;6.70;;;22.00;99.90;;;;;;4975758;28;20264;-53
2021/07/31 08:35:47;;;;;;;8.10;6.43;;;22.00;99.90;;;;;;4976637;28;20296;-56
2021/07/31 08:38:13;;;;;;;6.10;5.60;;;22.00;99.90;;;;;;4976087;28;20171;-50
2021/07/31 08:40:38;;;;;;;7.57;6.88;;;22.10;99.90;;;;;;4976204;28;20260;-50
2021/07/31 08:43:05;;;;;;;6.63;5.93;;;22.30;99.90;;;;;;4975433;28;20211;-51
2021/07/31 08:45:31;;;;;;;6.30;5.70;;;22.30;99.90;;;;;;4976266;28;20164;-50
2021/07/31 08:47:58;;;;;;;6.38;5.72;;;22.30;99.90;;;;;;4976110;28;20181;-56
2021/07/31 08:50:24;;;;;;;6.70;6.00;;;22.30;99.90;;;;;;4975011;28;20181;-54
2021/07/31 08:52:52;;;;;;;7.80;5.43;;;22.30;99.90;;;;;;4975964;28;20201;-51
2021/07/31 08:55:17;;;;;;;6.10;5.55;;;22.20;99.90;;;;;;4975909;28;20200;-51
2021/07/31 08:57:44;;;;;;;7.13;6.28;;;22.10;99.90;;;;;;4976299;28;20511;-51
2021/07/31 09:00:10;;;;;;;6.47;5.88;;;22.00;99.90;;;;;;4978709;28;20170;-51
2021/07/31 09:02:47;;;;;;;6.28;5.60;;;22.00;99.90;;;;;;4998913;28;20172;-50
2021/07/31 09:05:31;;;;;;;7.07;6.05;;;22.00;99.90;;;;;;5000625;28;20537;-55
2021/07/31 09:08:04;;;;;;;6.90;5.43;;;22.10;99.90;;;;;;4993266;28;20201;-54
2021/07/31 09:10:39;;;;;;;6.60;5.70;;;22.40;99.90;;;;;;5111174;27;20553;-51
2021/07/31 09:13:13;;;;;;;6.40;5.80;;;22.80;99.90;;;;;;5105095;28;20259;-52
2021/07/31 09:15:47;;;;;;;7.95;5.90;;;23.00;99.90;;;;;;5090637;28;20240;-49
2021/07/31 09:18:19;;;;;;;6.05;5.47;;;23.10;99.90;;;;;;5090981;28;20648;-53
2021/07/31 09:21:12;;;;;;;6.90;5.80;;;22.90;99.90;;;;;;5084244;28;20573;-52
2021/07/31 09:23:48;;;;;;;6.43;5.82;;;23.20;99.90;;;;;;5090088;28;20277;-54
2021/07/31 09:26:15;;;;;;;6.07;5.10;;;23.30;99.90;;;;;;5090733;28;20594;-56
2021/07/31 09:28:42;;;;;;;7.75;6.07;;;23.50;99.90;;;;;;5090650;28;20236;-49
2021/07/31 09:31:20;;;;;;;6.32;5.82;;;23.50;99.90;;;;;;5090343;28;20642;-49
2021/07/31 09:33:48;;;;;;;7.18;5.88;;;23.50;99.90;;;;;;5090854;28;20186;-49
2021/07/31 09:36:15;;;;;;;6.47;5.88;;;23.50;99.90;;;;;;5090575;28;20245;-51
2021/07/31 09:38:44;;;;;;;6.22;5.57;;;23.20;99.90;;;;;;5090991;28;20166;-51
2021/07/31 09:41:22;;;;;;;6.15;5.60;;;23.10;99.90;;;;;;5090258;28;20276;-54
2021/07/31 09:44:04;;;;;;;5.82;5.18;;;23.10;99.90;;;;;;5090796;28;20229;-50
2021/07/31 09:46:40;;;;;;;8.82;5.40;;;23.40;99.90;;;;;;5090350;28;20181;-51
2021/07/31 09:49:08;;;;;;;5.60;5.10;;;23.60;99.90;;;;;;5090278;28;20194;-51
2021/07/31 09:51:39;;;;;;;5.75;4.97;;;24.00;99.90;;;;;;5089636;28;20182;-52
2021/07/31 09:54:07;;;;;;;5.05;4.47;;;24.20;99.90;;;;;;5090408;28;20244;-53
2021/07/31 09:56:39;;;;;;;6.80;5.38;;;24.50;99.90;;;;;;5091308;28;20174;-55
2021/07/31 09:59:05;;;;;;;10.30;5.28;;;24.30;99.90;;;;;;5090954;28;20257;-57
2021/07/31 10:01:35;;;;;;;6.90;5.70;;;24.20;99.90;;;;;;5090322;28;20179;-56
2021/07/31 10:04:02;;;;;;;6.28;5.63;;;24.10;99.90;;;;;;5090866;28;20194;-55
2021/07/31 10:06:30;;;;;;;6.55;5.00;;;24.20;99.90;;;;;;5090938;28;20634;-53
2021/07/31 10:08:57;;;;;;;6.60;5.63;;;24.80;99.90;;;;;;5089927;28;20569;-52
2021/07/31 10:11:23;;;;;;;6.72;5.10;;;25.20;99.90;;;;;;5090496;28;20174;-51
2021/07/31 10:13:49;;;;;;;5.93;4.88;;;25.10;99.90;;;;;;5080542;28;20609;-56
2021/07/31 10:16:16;;;;;;;4.80;4.40;;;25.00;99.90;;;;;;5086801;28;20181;-53
2021/07/31 10:18:57;;;;;;;7.93;5.25;;;25.30;99.90;;;;;;5087571;28;20173;-50
2021/07/31 10:21:29;;;;;;;5.18;4.70;;;25.20;99.90;;;;;;5059289;28;20197;-53
2021/07/31 10:24:03;;;;;;;6.95;4.50;;;25.20;99.90;;;;;;5054630;28;20195;-54
2021/07/31 10:26:30;;;;;;;4.97;4.57;;;25.20;99.90;;;;;;5083770;28;20181;-52
2021/07/31 10:29:27;;;;;;;5.70;4.97;;;25.30;99.90;;;;;;5061009;28;20201;-54
2021/07/31 10:31:55;;;;;;;5.85;4.82;;;25.20;99.90;;;;;;5059464;28;20171;-54
2021/07/31 10:34:57;;;;;;;5.97;5.00;;;25.30;99.90;;;;;;5074671;28;20189;-55
2021/07/31 10:37:31;;;;;;;6.18;5.10;;;25.00;99.90;;;;;;5065311;28;20178;-51
2021/07/31 10:40:01;;;;;;;5.50;4.55;;;24.60;99.90;;;;;;5062290;28;20178;-51
2021/07/31 10:42:46;;;;;;;7.25;5.53;;;24.60;99.90;;;;;;5071057;28;20186;-52
2021/07/31 10:45:15;;;;;;;5.35;4.85;;;24.70;99.90;;;;;;5075550;28;20186;-51
2021/07/31 10:47:41;;;;;;;5.60;5.00;;;24.80;99.90;;;;;;5066070;28;20176;-56
2021/07/31 10:50:22;;;;;;;5.13;4.63;;;25.00;99.90;;;;;;5067877;28;20187;-56
2021/07/31 10:53:02;;;;;;;5.93;4.97;;;25.00;99.90;;;;;;5063822;28;20182;-51
2021/07/31 10:55:47;;;;;;;5.28;4.78;;;25.00;99.90;;;;;;5066933;28;20163;-54
2021/07/31 10:58:17;;;;;;;5.10;4.60;;;25.00;99.90;;;;;;5075389;28;20202;-57
2021/07/31 11:00:48;;;;;;;6.28;4.85;;;25.10;99.90;;;;;;5070681;28;20191;-54
2021/07/31 11:03:23;;;;;;;5.15;4.65;;;24.70;99.90;;;;;;5067576;28;20217;-57
2021/07/31 11:05:54;;;;;;;4.80;4.40;;;24.40;99.90;;;;;;5076596;28;20201;-51
2021/07/31 11:08:23;;;;;;;5.50;5.00;;;24.40;99.90;;;;;;5075357;28;20159;-57
2021/07/31 11:10:50;;;;;;;6.20;5.18;;;24.40;99.90;;;;;;5075282;28;20265;-58
2021/07/31 11:13:18;;;;;;;6.47;4.93;;;24.50;99.90;;;;;;5075426;28;20214;-54
2021/07/31 11:15:56;;;;;;;6.05;4.20;;;24.60;99.90;;;;;;5075030;28;20246;-52
2021/07/31 11:18:36;;;;;;;5.82;4.72;;;24.60;99.90;;;;;;5074698;28;20171;-53
2021/07/31 11:21:14;;;;;;;5.22;4.72;;;24.60;99.90;;;;;;5073532;28;20208;-52
2021/07/31 11:23:49;;;;;;;4.93;4.53;;;24.70;99.90;;;;;;5061032;28;20596;-56
2021/07/31 11:26:43;;;;;;;4.53;4.10;;;24.90;99.90;;;;;;5062984;28;20252;-53
2021/07/31 11:29:20;;;;;;;5.55;4.25;;;25.40;99.90;;;;;;5060966;28;20252;-58
2021/07/31 11:32:16;;;;;;;4.50;4.10;;;25.70;99.90;;;;;;5073363;28;20172;-53
2021/07/31 11:34:46;;;;;;;4.97;4.50;;;25.80;99.90;;;;;;5075823;28;20539;-53
2021/07/31 11:37:13;;;;;;;4.25;3.70;;;25.70;99.90;;;;;;5063041;28;20187;-51
2021/07/31 11:39:39;;;;;;;4.25;3.90;;;25.40;99.90;;;;;;5079529;28;20179;-57
2021/07/31 11:42:06;;;;;;;5.93;3.90;;;25.40;99.90;;;;;;5077438;28;20224;-55
2021/07/31 11:44:33;;;;;;;5.13;3.95;;;25.20;99.90;;;;;;5084417;28;20251;-58
2021/07/31 11:47:00;;;;;;;4.32;3.92;;;25.10;99.90;;;;;;5070816;28;20186;-52
2021/07/31 11:49:36;;;;;;;5.35;4.40;;;25.10;99.90;;;;;;5064028;28;20224;-51
2021/07/31 11:52:10;;;;;;;4.63;4.13;;;25.00;99.90;;;;;;5055507;28;20563;-52
2021/07/31 11:54:43;;;;;;;4.38;4.03;;;25.20;99.90;;;;;;5069181;28;20718;-52
2021/07/31 11:57:09;;;;;;;4.18;3.88;;;25.60;99.90;;;;;;5063331;28;20195;-53
2021/07/31 11:59:37;;;;;;;4.10;3.80;;;25.80;99.90;;;;;;5062526;28;20187;-55
2021/07/31 12:02:03;;;;;;;3.97;3.67;;;26.00;99.90;;;;;;5054393;28;20177;-58
2021/07/31 12:04:44;;;;;;;4.30;3.90;;;25.80;99.90;;;;;;5053656;28;20215;-54
2021/07/31 12:07:12;;;;;;;5.20;3.95;;;26.20;99.90;;;;;;5055171;28;20182;-53
2021/07/31 12:09:38;;;;;;;4.28;3.88;;;26.30;99.90;;;;;;5054335;28;20207;-54
2021/07/31 12:12:21;;;;;;;4.45;4.05;;;26.50;99.90;;;;;;5054800;28;20174;-52
2021/07/31 12:14:46;;;;;;;4.25;3.85;;;26.80;99.90;;;;;;5053194;28;20181;-56
2021/07/31 12:17:21;;;;;;;4.97;3.92;;;27.20;99.90;;;;;;5053843;28;20266;-56
2021/07/31 12:19:55;;;;;;;5.13;3.72;;;27.50;99.90;;;;;;5054544;28;20185;-52
2021/07/31 12:22:22;;;;;;;3.78;3.47;;;27.50;99.90;;;;;;5053952;28;20163;-53
2021/07/31 12:25:11;;;;;;;3.95;3.65;;;27.10;99.90;;;;;;5054314;28;20195;-50
2021/07/31 12:28:07;;;;;;;7.03;3.45;;;27.00;99.90;;;;;;5054433;28;20167;-49
2021/07/31 12:30:36;;;;;;;5.65;3.58;;;27.20;99.90;;;;;;5053992;28;20215;-55
2021/07/31 12:33:07;;;;;;;3.78;3.38;;;27.10;99.90;;;;;;5053742;28;20667;-55
2021/07/31 12:35:44;;;;;;;3.80;3.47;;;27.20;99.90;;;;;;5054380;28;20175;-55
2021/07/31 12:38:27;;;;;;;3.78;3.47;;;27.20;99.90;;;;;;5054595;28;20201;-52
2021/07/31 12:40:58;;;;;;;4.43;3.80;;;27.00;99.90;;;;;;5053777;28;20202;-51
2021/07/31 12:43:26;;;;;;;5.60;3.47;;;26.90;99.90;;;;;;5053714;28;20230;-51
2021/07/31 12:45:53;;;;;;;3.42;3.13;;;26.70;99.90;;;;;;5053799;28;20239;-53
2021/07/31 12:48:19;;;;;;;3.80;3.45;;;26.70;99.90;;;;;;5054086;28;20163;-50